Time;durP1;ratioP1;P1;durP2;ratioP2;P2;SDS_P1;SDS_P2;PMS_P1;PMS_P2;Temp;Humidity;BMP_temperature;BMP_pressure;BME280_temperature;BME280_humidity;BME280_pressure;Samples;Min_cycle;Max_cycle;Signal;HPM_P1;HPM_P2
2024/01/10 00:01:55;;;;;;;2.28;2.08;;;14.10;51.60;;;;;;5113329;28;20180;-66
2024/01/10 00:04:20;;;;;;;2.22;1.90;;;14.00;51.60;;;;;;5112894;28;20177;-65
2024/01/10 00:06:46;;;;;;;2.22;2.03;;;14.00;51.60;;;;;;5112445;28;20184;-66
2024/01/10 00:09:11;;;;;;;2.17;2.00;;;14.00;51.50;;;;;;5113053;28;20173;-66
2024/01/10 00:11:37;;;;;;;2.42;2.22;;;14.00;51.60;;;;;;5112530;28;20543;-65
2024/01/10 00:14:03;;;;;;;2.08;1.90;;;14.00;51.70;;;;;;5111324;28;20303;-65
2024/01/10 00:16:29;;;;;;;2.40;2.17;;;14.00;51.50;;;;;;5112738;28;20219;-65
2024/01/10 00:18:57;;;;;;;2.20;2.00;;;14.00;51.60;;;;;;5112162;28;20200;-66
2024/01/10 00:21:23;;;;;;;2.30;2.10;;;14.00;51.60;;;;;;5112310;28;20180;-66
2024/01/10 00:23:49;;;;;;;2.28;2.08;;;14.00;51.60;;;;;;5112866;28;20180;-65
2024/01/10 00:26:15;;;;;;;2.17;1.90;;;13.90;51.60;;;;;;5111582;28;20188;-66
2024/01/10 00:28:40;;;;;;;2.13;1.92;;;13.90;51.60;;;;;;5112592;28;20177;-65
2024/01/10 00:31:06;;;;;;;2.45;2.25;;;13.90;51.60;;;;;;5112450;28;20259;-65
2024/01/10 00:33:31;;;;;;;2.20;2.00;;;13.90;51.60;;;;;;5111399;28;20299;-66
2024/01/10 00:35:57;;;;;;;2.25;2.08;;;13.90;51.60;;;;;;5112641;28;20302;-66
2024/01/10 00:38:22;;;;;;;3.25;2.08;;;13.90;51.60;;;;;;5112222;28;20306;-66
2024/01/10 00:40:48;;;;;;;2.58;2.38;;;13.90;52.20;;;;;;5111632;28;20218;-66
2024/01/10 00:43:13;;;;;;;3.53;2.95;;;13.80;51.50;;;;;;5112539;28;20255;-66
2024/01/10 00:45:39;;;;;;;2.45;2.22;;;13.80;51.60;;;;;;5112523;28;20576;-66
2024/01/10 00:48:04;;;;;;;2.33;2.13;;;13.80;51.70;;;;;;5111337;28;20184;-65
2024/01/10 00:50:30;;;;;;;2.10;2.00;;;13.80;51.60;;;;;;5093925;28;20176;-65
2024/01/10 00:52:55;;;;;;;2.50;2.30;;;13.80;51.70;;;;;;5112216;28;20205;-66
2024/01/10 00:55:21;;;;;;;2.60;2.40;;;13.80;51.70;;;;;;5111194;28;20169;-66
2024/01/10 00:57:46;;;;;;;2.45;2.25;;;13.80;51.60;;;;;;5112140;28;20225;-66
2024/01/10 01:00:12;;;;;;;2.60;2.22;;;13.80;51.60;;;;;;5112303;28;20263;-66
2024/01/10 01:02:41;;;;;;;2.45;2.25;;;13.80;52.20;;;;;;5111571;28;20548;-65
2024/01/10 01:05:07;;;;;;;2.25;2.05;;;13.70;51.60;;;;;;5112163;28;20173;-65
2024/01/10 01:07:33;;;;;;;2.40;2.20;;;13.70;51.60;;;;;;5111743;28;20176;-66
2024/01/10 01:10:01;;;;;;;2.13;2.00;;;13.70;51.60;;;;;;5111422;28;20173;-66
2024/01/10 01:12:27;;;;;;;2.40;2.20;;;13.70;51.60;;;;;;5111780;28;20173;-66
2024/01/10 01:14:52;;;;;;;2.42;2.22;;;13.70;51.70;;;;;;5112232;28;20222;-65
2024/01/10 01:17:18;;;;;;;2.85;2.65;;;13.70;51.60;;;;;;5111173;28;20196;-66
2024/01/10 01:19:43;;;;;;;2.55;2.35;;;13.70;51.70;;;;;;5112012;28;20262;-66
2024/01/10 01:22:09;;;;;;;2.22;2.00;;;13.70;51.70;;;;;;5111588;28;20264;-66
2024/01/10 01:24:35;;;;;;;2.50;2.30;;;13.70;51.60;;;;;;5111562;28;20257;-66
2024/01/10 01:27:03;;;;;;;2.20;2.00;;;13.80;51.50;;;;;;5111916;28;20280;-65
2024/01/10 01:29:29;;;;;;;2.30;2.10;;;13.80;51.50;;;;;;5111091;28;20173;-65
2024/01/10 01:31:55;;;;;;;2.60;2.08;;;13.80;51.40;;;;;;5093905;28;20602;-65
2024/01/10 01:34:20;;;;;;;2.60;2.25;;;13.80;51.40;;;;;;5111529;28;20213;-65
2024/01/10 01:36:46;;;;;;;2.40;2.20;;;13.80;51.40;;;;;;5111257;28;20635;-66
2024/01/10 01:39:13;;;;;;;2.38;2.17;;;13.80;51.40;;;;;;5111895;28;20520;-66
2024/01/10 01:41:41;;;;;;;2.42;1.98;;;13.80;51.40;;;;;;5111769;28;20643;-66
2024/01/10 01:44:07;;;;;;;2.13;1.90;;;13.80;51.50;;;;;;5111375;28;20169;-66
2024/01/10 01:46:32;;;;;;;2.20;2.10;;;13.70;51.40;;;;;;5111612;28;20539;-65
2024/01/10 01:48:58;;;;;;;2.60;2.40;;;13.70;51.40;;;;;;5111819;28;20630;-66
2024/01/10 01:51:24;;;;;;;2.70;2.50;;;13.70;51.50;;;;;;5110736;28;20533;-65
2024/01/10 01:53:49;;;;;;;2.20;2.00;;;13.70;51.60;;;;;;5111497;28;20756;-66
2024/01/10 01:56:16;;;;;;;2.70;2.00;;;13.70;51.50;;;;;;5093028;28;20192;-65
2024/01/10 01:58:44;;;;;;;2.13;1.92;;;13.80;51.50;;;;;;5093058;28;20177;-65
2024/01/10 02:01:11;;;;;;;2.17;1.98;;;13.80;51.40;;;;;;5079169;28;20169;-65
2024/01/10 02:03:36;;;;;;;2.40;2.15;;;13.90;51.40;;;;;;5080491;28;20201;-65
2024/01/10 02:06:03;;;;;;;2.40;2.20;;;13.80;51.20;;;;;;5114629;28;20589;-65
2024/01/10 02:08:37;;;;;;;2.40;2.20;;;13.90;51.20;;;;;;5114900;28;20234;-65
2024/01/10 02:11:03;;;;;;;2.38;2.17;;;13.90;51.10;;;;;;5115300;28;20167;-65
2024/01/10 02:13:29;;;;;;;2.47;2.08;;;14.00;51.10;;;;;;5095984;28;20651;-65
2024/01/10 02:15:55;;;;;;;1.90;1.80;;;14.10;51.10;;;;;;5096948;28;20175;-65
2024/01/10 02:18:27;;;;;;;2.22;2.03;;;14.20;50.90;;;;;;5114756;28;20255;-66
2024/01/10 02:20:52;;;;;;;2.50;2.10;;;14.20;50.80;;;;;;5115074;28;20192;-66
2024/01/10 02:23:18;;;;;;;2.47;2.03;;;14.30;50.90;;;;;;5114684;28;20208;-65
2024/01/10 02:25:43;;;;;;;2.00;1.90;;;14.30;50.80;;;;;;5114350;28;20177;-65
2024/01/10 02:28:15;;;;;;;2.05;1.92;;;14.30;50.70;;;;;;5096887;28;20165;-64
2024/01/10 02:30:40;;;;;;;2.53;2.03;;;14.30;50.70;;;;;;5114766;28;20188;-64
2024/01/10 02:33:06;;;;;;;1.95;1.85;;;14.40;50.70;;;;;;5113946;28;20201;-65
2024/01/10 02:35:32;;;;;;;2.22;2.03;;;14.40;50.60;;;;;;5114388;28;20173;-66
2024/01/10 02:37:58;;;;;;;1.98;1.88;;;14.40;50.60;;;;;;5114843;28;20177;-66
2024/01/10 02:40:24;;;;;;;1.88;1.77;;;14.50;50.50;;;;;;5113813;28;20185;-65
2024/01/10 02:42:51;;;;;;;2.10;1.90;;;14.50;50.60;;;;;;5114871;28;20165;-66
2024/01/10 02:45:19;;;;;;;1.77;1.67;;;14.50;50.50;;;;;;5114441;28;20181;-66
2024/01/10 02:47:45;;;;;;;1.98;1.77;;;14.60;50.50;;;;;;5113851;28;20260;-65
2024/01/10 02:50:10;;;;;;;2.28;1.83;;;14.60;50.40;;;;;;5114440;28;20290;-65
2024/01/10 02:52:36;;;;;;;2.42;2.22;;;14.70;50.40;;;;;;5114101;28;20236;-65
2024/01/10 02:55:01;;;;;;;2.30;2.10;;;14.70;50.40;;;;;;5113856;28;20186;-66
2024/01/10 02:57:30;;;;;;;1.95;1.60;;;14.70;50.30;;;;;;5113926;28;20256;-65
2024/01/10 02:59:55;;;;;;;2.17;1.98;;;14.70;50.30;;;;;;5114311;28;20639;-65
2024/01/10 03:02:23;;;;;;;2.20;1.80;;;14.70;50.30;;;;;;5113255;28;20181;-65
2024/01/10 03:04:49;;;;;;;2.33;2.13;;;14.80;50.30;;;;;;5114166;28;20218;-65
2024/01/10 03:07:14;;;;;;;2.60;2.35;;;14.80;50.20;;;;;;5114130;28;20250;-65
2024/01/10 03:09:40;;;;;;;2.13;1.92;;;14.70;50.20;;;;;;5113337;28;20658;-65
2024/01/10 03:12:05;;;;;;;1.80;1.70;;;14.70;50.20;;;;;;5113744;28;20177;-65
2024/01/10 03:14:31;;;;;;;2.10;2.00;;;14.70;50.30;;;;;;5113727;28;20209;-65
2024/01/10 03:16:56;;;;;;;2.05;1.95;;;14.60;50.30;;;;;;5094809;28;20169;-65
2024/01/10 03:19:22;;;;;;;2.22;2.03;;;14.50;50.50;;;;;;5113555;28;20577;-65
2024/01/10 03:21:47;;;;;;;2.30;2.10;;;14.40;50.50;;;;;;5113153;28;20169;-66
2024/01/10 03:24:13;;;;;;;2.42;2.10;;;14.40;50.70;;;;;;5113717;28;20177;-65
2024/01/10 03:26:38;;;;;;;2.00;1.80;;;14.30;50.70;;;;;;5113676;28;20226;-64
2024/01/10 03:29:04;;;;;;;2.20;2.00;;;14.30;51.00;;;;;;5113021;28;20173;-65
2024/01/10 03:31:30;;;;;;;2.38;2.17;;;14.20;51.10;;;;;;5113269;28;20177;-65
2024/01/10 03:33:56;;;;;;;2.33;2.15;;;14.20;51.30;;;;;;5113547;28;20216;-65
2024/01/10 03:36:21;;;;;;;2.45;2.13;;;14.10;51.80;;;;;;5112758;28;20177;-66
2024/01/10 03:38:47;;;;;;;2.40;2.20;;;14.10;51.20;;;;;;5113513;28;20700;-66
2024/01/10 03:41:17;;;;;;;2.55;2.35;;;14.10;51.20;;;;;;5113520;28;20206;-66
2024/01/10 03:43:42;;;;;;;2.15;1.95;;;14.10;51.20;;;;;;5112754;28;20181;-66
2024/01/10 03:46:08;;;;;;;1.90;1.80;;;14.20;51.10;;;;;;5113490;28;20195;-65
2024/01/10 03:48:34;;;;;;;2.22;2.00;;;14.20;51.00;;;;;;5112952;28;20189;-66
2024/01/10 03:51:00;;;;;;;1.80;1.70;;;14.20;51.00;;;;;;5112576;28;20309;-66
2024/01/10 03:53:25;;;;;;;2.60;2.40;;;14.30;51.50;;;;;;5094944;28;20219;-66
2024/01/10 03:55:51;;;;;;;2.17;1.95;;;14.30;50.90;;;;;;5113372;28;20623;-65
2024/01/10 03:58:16;;;;;;;2.08;1.98;;;14.30;50.80;;;;;;5112001;28;20623;-65
2024/01/10 04:00:42;;;;;;;2.65;2.45;;;14.30;50.70;;;;;;5113073;28;20314;-65
2024/01/10 04:03:07;;;;;;;2.17;1.80;;;14.40;50.70;;;;;;5112959;28;20226;-66
2024/01/10 04:05:33;;;;;;;2.28;2.08;;;14.40;50.70;;;;;;5112181;28;20283;-66
2024/01/10 04:08:02;;;;;;;2.15;1.95;;;14.40;50.70;;;;;;5113120;28;20179;-65
2024/01/10 04:10:28;;;;;;;2.55;2.20;;;14.40;50.70;;;;;;5112543;28;20575;-66
2024/01/10 04:12:53;;;;;;;2.67;2.28;;;14.30;50.70;;;;;;5112016;28;20197;-66
2024/01/10 04:15:19;;;;;;;2.28;2.08;;;14.30;50.70;;;;;;5112528;28;20180;-65
2024/01/10 04:17:44;;;;;;;2.38;2.17;;;14.30;50.90;;;;;;5112956;28;20257;-66
2024/01/10 04:20:10;;;;;;;2.30;2.10;;;14.20;51.00;;;;;;5112185;28;20592;-65
2024/01/10 04:22:36;;;;;;;2.28;2.08;;;14.20;51.10;;;;;;5112131;28;20272;-66
2024/01/10 04:25:04;;;;;;;2.05;1.83;;;14.20;51.10;;;;;;5112050;28;20173;-66
2024/01/10 04:27:30;;;;;;;2.47;2.13;;;14.20;51.00;;;;;;5112232;28;20184;-65
2024/01/10 04:29:55;;;;;;;2.65;2.20;;;14.10;50.90;;;;;;5112545;28;20181;-65
2024/01/10 04:32:21;;;;;;;2.22;2.03;;;14.20;50.90;;;;;;5111479;28;20179;-64
2024/01/10 04:34:47;;;;;;;2.15;2.00;;;14.30;50.90;;;;;;5112679;28;20189;-66
2024/01/10 04:37:12;;;;;;;2.35;1.95;;;14.30;50.80;;;;;;5112873;28;20173;-66
2024/01/10 04:39:38;;;;;;;3.08;2.33;;;14.30;50.80;;;;;;5111458;28;20643;-66
2024/01/10 04:42:04;;;;;;;2.20;2.00;;;14.30;50.70;;;;;;5112606;28;20169;-66
2024/01/10 04:44:29;;;;;;;2.10;1.90;;;14.30;50.70;;;;;;5094081;28;20177;-65
2024/01/10 04:46:55;;;;;;;2.05;1.95;;;14.30;50.80;;;;;;5111587;28;20175;-66
2024/01/10 04:49:20;;;;;;;2.55;2.35;;;14.30;50.90;;;;;;5111331;28;20193;-66
2024/01/10 04:51:46;;;;;;;2.40;2.20;;;14.20;51.00;;;;;;5112626;28;20536;-66
2024/01/10 04:54:11;;;;;;;2.38;2.17;;;14.20;51.10;;;;;;5111636;28;20672;-66
2024/01/10 04:56:37;;;;;;;2.38;2.17;;;14.10;51.30;;;;;;5111764;28;20220;-66
2024/01/10 04:59:04;;;;;;;3.10;2.25;;;14.10;51.30;;;;;;5112153;28;20228;-66
2024/01/10 05:01:29;;;;;;;2.25;2.05;;;14.10;51.30;;;;;;5111346;28;20216;-66
2024/01/10 05:03:55;;;;;;;2.13;1.95;;;14.10;51.20;;;;;;5112030;28;20628;-65
2024/01/10 05:06:20;;;;;;;2.30;2.10;;;14.20;51.10;;;;;;5111766;28;20169;-66
2024/01/10 05:08:49;;;;;;;2.40;2.20;;;14.20;51.00;;;;;;5111550;28;20169;-66
2024/01/10 05:11:14;;;;;;;2.42;2.10;;;14.20;51.00;;;;;;5111892;28;20176;-66
2024/01/10 05:13:40;;;;;;;2.13;1.92;;;14.20;50.90;;;;;;5111963;28;20209;-65
2024/01/10 05:16:06;;;;;;;2.30;2.10;;;14.30;50.90;;;;;;5111563;28;20521;-65
2024/01/10 05:18:31;;;;;;;2.60;2.40;;;14.30;50.90;;;;;;5111836;28;20183;-65
2024/01/10 05:20:57;;;;;;;2.08;1.88;;;14.30;50.90;;;;;;5112215;28;20252;-66
2024/01/10 05:23:23;;;;;;;2.28;2.08;;;14.30;50.90;;;;;;5111124;28;20294;-66
2024/01/10 05:25:48;;;;;;;2.42;2.05;;;14.30;50.90;;;;;;5111919;28;20631;-65
2024/01/10 05:28:14;;;;;;;2.50;2.30;;;14.20;50.90;;;;;;5111706;28;20647;-64
2024/01/10 05:30:41;;;;;;;2.50;2.28;;;14.20;51.00;;;;;;5111441;28;20234;-64
2024/01/10 05:33:06;;;;;;;2.08;1.85;;;14.10;51.00;;;;;;5111943;28;20208;-65
2024/01/10 05:35:32;;;;;;;2.22;2.03;;;14.10;51.10;;;;;;5113569;28;20218;-66
2024/01/10 05:37:57;;;;;;;2.42;2.22;;;14.10;51.20;;;;;;5115931;28;20272;-66
2024/01/10 05:40:23;;;;;;;2.22;2.03;;;14.00;51.10;;;;;;5115618;28;20260;-66
2024/01/10 05:42:49;;;;;;;2.38;2.05;;;14.10;51.10;;;;;;5115088;28;20242;-66
2024/01/10 05:45:17;;;;;;;2.47;2.28;;;14.10;51.00;;;;;;5115774;28;20184;-65
2024/01/10 05:47:43;;;;;;;2.38;2.17;;;14.20;51.00;;;;;;5116019;28;20633;-65
2024/01/10 05:50:09;;;;;;;2.70;2.33;;;14.20;50.80;;;;;;5115036;28;20635;-65
2024/01/10 05:52:34;;;;;;;2.53;2.33;;;14.40;50.80;;;;;;5115350;28;20527;-65
2024/01/10 05:55:03;;;;;;;2.38;2.10;;;14.50;50.60;;;;;;5115564;28;20169;-66
2024/01/10 05:57:30;;;;;;;2.70;2.50;;;14.80;50.30;;;;;;5114270;28;20241;-65
2024/01/10 05:59:56;;;;;;;2.17;2.00;;;15.00;50.00;;;;;;5115813;28;20180;-65
2024/01/10 06:02:24;;;;;;;2.38;2.17;;;15.10;49.80;;;;;;5115197;28;20204;-64
2024/01/10 06:04:49;;;;;;;3.13;2.50;;;15.30;49.60;;;;;;5114669;28;20585;-65
2024/01/10 06:07:18;;;;;;;3.00;2.47;;;15.40;49.50;;;;;;5115154;28;20256;-66
2024/01/10 06:09:43;;;;;;;2.60;2.40;;;15.50;49.40;;;;;;5115330;28;20184;-66
2024/01/10 06:12:09;;;;;;;2.83;2.00;;;15.50;49.30;;;;;;5114494;28;20197;-65
2024/01/10 06:14:34;;;;;;;3.03;2.22;;;15.50;49.20;;;;;;5115109;28;20282;-65
2024/01/10 06:17:01;;;;;;;2.45;2.22;;;15.60;49.10;;;;;;5115352;28;20215;-65
2024/01/10 06:19:26;;;;;;;2.80;2.60;;;15.60;49.00;;;;;;5113993;28;20544;-65
2024/01/10 06:21:55;;;;;;;2.78;2.58;;;15.60;49.10;;;;;;5115058;28;20173;-65
2024/01/10 06:24:21;;;;;;;3.47;2.67;;;15.60;49.20;;;;;;5114754;28;20173;-65
2024/01/10 06:26:46;;;;;;;2.35;2.00;;;15.50;49.10;;;;;;5114163;28;20310;-65
2024/01/10 06:29:12;;;;;;;2.67;2.47;;;15.50;49.20;;;;;;5115145;28;20598;-64
2024/01/10 06:31:37;;;;;;;2.53;2.33;;;15.60;49.20;;;;;;5114228;28;20647;-65
2024/01/10 06:34:06;;;;;;;2.50;2.30;;;15.50;49.30;;;;;;5114598;28;20753;-65
2024/01/10 06:36:31;;;;;;;2.17;1.98;;;15.50;49.30;;;;;;5114446;28;20184;-65
2024/01/10 06:38:57;;;;;;;2.63;2.40;;;15.50;49.40;;;;;;5114194;28;20169;-66
2024/01/10 06:41:25;;;;;;;2.22;2.00;;;15.50;49.30;;;;;;5114363;28;20169;-65
2024/01/10 06:43:51;;;;;;;2.67;2.35;;;15.60;49.40;;;;;;5115012;28;20173;-68
2024/01/10 06:46:17;;;;;;;2.40;2.20;;;15.50;49.30;;;;;;5112990;28;20193;-65
2024/01/10 06:48:42;;;;;;;2.65;2.40;;;15.60;49.20;;;;;;5114564;28;20709;-65
2024/01/10 06:51:14;;;;;;;2.38;2.17;;;15.70;49.20;;;;;;5114370;28;20200;-65
2024/01/10 06:53:40;;;;;;;2.38;2.17;;;15.80;49.20;;;;;;5113615;28;20209;-65
2024/01/10 06:56:06;;;;;;;2.25;2.05;;;15.90;49.00;;;;;;5114649;28;20180;-65
2024/01/10 06:58:31;;;;;;;2.42;2.15;;;16.00;48.80;;;;;;5114015;28;20225;-64
2024/01/10 07:00:58;;;;;;;2.45;2.25;;;16.10;48.70;;;;;;5113871;28;20165;-65
2024/01/10 07:03:23;;;;;;;2.33;2.05;;;16.10;48.70;;;;;;5114001;28;20181;-65
2024/01/10 07:05:49;;;;;;;2.55;2.35;;;16.10;48.80;;;;;;5114278;28;20262;-65
2024/01/10 07:08:17;;;;;;;2.17;1.90;;;16.10;48.80;;;;;;5113339;28;20195;-65
2024/01/10 07:10:42;;;;;;;2.50;2.30;;;16.10;48.70;;;;;;5114094;28;20685;-65
2024/01/10 07:13:08;;;;;;;2.53;2.33;;;16.20;48.70;;;;;;5114186;28;20204;-65
2024/01/10 07:15:33;;;;;;;2.30;2.10;;;16.20;48.60;;;;;;5113221;28;20429;-65
2024/01/10 07:17:59;;;;;;;2.25;2.05;;;16.20;48.60;;;;;;5113130;28;20534;-65
2024/01/10 07:20:24;;;;;;;2.75;2.53;;;16.20;48.70;;;;;;5113643;28;20170;-66
2024/01/10 07:22:51;;;;;;;2.55;2.35;;;16.20;48.60;;;;;;5113105;28;20177;-65
2024/01/10 07:25:17;;;;;;;4.10;2.88;;;16.30;48.60;;;;;;5113776;28;20184;-65
2024/01/10 07:27:45;;;;;;;2.97;2.40;;;16.30;48.60;;;;;;5114075;28;20177;-65
2024/01/10 07:30:14;;;;;;;2.40;2.20;;;16.30;48.50;;;;;;5113085;28;20184;-64
2024/01/10 07:32:43;;;;;;;2.63;2.42;;;16.30;48.60;;;;;;5113684;28;20184;-65
2024/01/10 07:35:09;;;;;;;2.50;2.30;;;16.30;48.60;;;;;;5112981;28;20196;-65
2024/01/10 07:37:39;;;;;;;2.28;2.10;;;16.30;48.60;;;;;;5113282;28;20562;-65
2024/01/10 07:40:08;;;;;;;2.78;2.58;;;16.40;48.60;;;;;;5113861;28;20189;-66
2024/01/10 07:42:37;;;;;;;2.65;2.45;;;16.40;48.50;;;;;;5112667;28;21216;-65
2024/01/10 07:45:06;;;;;;;2.65;2.20;;;16.40;48.50;;;;;;5113577;28;20176;-66
2024/01/10 07:47:31;;;;;;;2.20;2.00;;;16.40;48.60;;;;;;5113223;28;20181;-65
2024/01/10 07:50:03;;;;;;;2.60;2.40;;;16.40;48.50;;;;;;5112622;28;20169;-65
2024/01/10 07:52:28;;;;;;;3.72;3.08;;;16.40;48.50;;;;;;5113302;28;20208;-66
2024/01/10 07:54:54;;;;;;;2.40;2.20;;;16.50;48.40;;;;;;5113557;28;20283;-65
2024/01/10 07:57:19;;;;;;;3.40;3.10;;;16.50;48.50;;;;;;5111579;28;20316;-65
2024/01/10 07:59:45;;;;;;;2.63;2.40;;;16.50;48.50;;;;;;5112673;28;20175;-65
2024/01/10 08:02:11;;;;;;;2.40;2.20;;;16.50;48.40;;;;;;5113294;28;20176;-66
2024/01/10 08:04:37;;;;;;;3.00;2.70;;;16.50;48.40;;;;;;5111973;28;20177;-65
2024/01/10 08:07:03;;;;;;;3.35;3.03;;;16.60;48.40;;;;;;5113296;28;20180;-65
2024/01/10 08:09:28;;;;;;;2.90;2.63;;;16.60;48.40;;;;;;5112876;28;20176;-65
2024/01/10 08:11:54;;;;;;;2.85;2.50;;;16.60;48.40;;;;;;5112439;28;20177;-65
2024/01/10 08:14:19;;;;;;;3.88;2.80;;;16.60;48.40;;;;;;5112622;28;20573;-65
2024/01/10 08:16:45;;;;;;;2.70;2.50;;;16.60;48.40;;;;;;5112907;28;20496;-66
2024/01/10 08:19:11;;;;;;;3.20;2.85;;;16.60;48.40;;;;;;5112123;28;20177;-65
2024/01/10 08:21:36;;;;;;;3.20;2.92;;;16.60;48.40;;;;;;5112722;28;20255;-65
2024/01/10 08:24:02;;;;;;;3.10;2.90;;;16.70;48.40;;;;;;5112745;28;20192;-65
2024/01/10 08:26:28;;;;;;;3.15;2.70;;;16.60;48.20;;;;;;5111783;28;20172;-65
2024/01/10 08:28:53;;;;;;;3.65;2.80;;;16.70;48.30;;;;;;5112898;28;20183;-64
2024/01/10 08:31:19;;;;;;;4.30;3.05;;;16.70;48.30;;;;;;5111659;28;20172;-66
2024/01/10 08:33:45;;;;;;;2.65;2.45;;;16.70;48.30;;;;;;5112528;28;20220;-65
2024/01/10 08:36:11;;;;;;;3.22;2.92;;;16.70;48.30;;;;;;5112831;28;20504;-66
2024/01/10 08:38:37;;;;;;;2.70;2.50;;;16.70;48.40;;;;;;5111761;28;20177;-67
2024/01/10 08:41:03;;;;;;;2.90;2.70;;;16.80;49.00;;;;;;5112577;28;20173;-66
2024/01/10 08:43:29;;;;;;;2.95;2.65;;;16.80;48.40;;;;;;5112323;28;20181;-66
2024/01/10 08:45:54;;;;;;;3.70;3.30;;;16.80;48.30;;;;;;5111977;28;20542;-65
2024/01/10 08:48:20;;;;;;;3.72;3.08;;;16.90;49.00;;;;;;5112138;28;20200;-67
2024/01/10 08:50:45;;;;;;;2.80;2.60;;;16.90;48.30;;;;;;5112552;28;20177;-65
2024/01/10 08:53:11;;;;;;;3.20;2.90;;;17.00;48.20;;;;;;5111540;28;20209;-65
2024/01/10 08:55:39;;;;;;;3.40;3.10;;;17.00;48.10;;;;;;5111924;28;20179;-66
2024/01/10 08:58:08;;;;;;;3.80;3.45;;;17.00;48.00;;;;;;5112145;28;20589;-65
2024/01/10 09:00:34;;;;;;;3.15;2.78;;;17.10;48.00;;;;;;5111210;28;20648;-66
2024/01/10 09:03:00;;;;;;;3.28;2.97;;;17.20;48.00;;;;;;5112139;28;20169;-66
2024/01/10 09:05:25;;;;;;;3.92;3.22;;;17.10;47.90;;;;;;5111838;28;20525;-66
2024/01/10 09:07:51;;;;;;;2.70;2.42;;;17.20;48.00;;;;;;5111577;28;20175;-66
2024/01/10 09:10:17;;;;;;;3.53;3.22;;;17.40;47.80;;;;;;5114347;28;20643;-65
2024/01/10 09:12:45;;;;;;;3.30;2.97;;;17.30;47.70;;;;;;5116398;28;20212;-66
2024/01/10 09:15:13;;;;;;;3.42;3.13;;;17.30;47.80;;;;;;5115785;28;20184;-65
2024/01/10 09:17:39;;;;;;;3.08;2.70;;;17.20;48.40;;;;;;5116169;28;20181;-66
2024/01/10 09:20:14;;;;;;;3.47;3.05;;;17.20;47.90;;;;;;5116551;28;20197;-66
2024/01/10 09:22:40;;;;;;;3.50;3.17;;;17.10;48.00;;;;;;5114241;28;20241;-66
2024/01/10 09:25:06;;;;;;;3.47;3.10;;;17.10;48.20;;;;;;5116321;28;20212;-66
2024/01/10 09:27:33;;;;;;;3.20;3.00;;;17.00;48.40;;;;;;5115344;28;20200;-65
2024/01/10 09:29:59;;;;;;;4.07;3.47;;;17.00;48.40;;;;;;5116264;28;20176;-65
2024/01/10 09:32:25;;;;;;;3.17;2.97;;;16.90;48.50;;;;;;5116035;28;20177;-65
2024/01/10 09:34:50;;;;;;;3.40;3.10;;;16.90;48.80;;;;;;5115394;28;20213;-66
2024/01/10 09:37:16;;;;;;;3.47;3.08;;;16.80;48.70;;;;;;5115979;28;20180;-66
2024/01/10 09:39:42;;;;;;;3.42;3.13;;;16.70;48.70;;;;;;5116145;28;20172;-66
2024/01/10 09:42:07;;;;;;;3.75;3.13;;;16.70;48.90;;;;;;5115244;28;20166;-66
2024/01/10 09:44:33;;;;;;;3.83;3.42;;;16.70;49.00;;;;;;5097499;28;20176;-65
2024/01/10 09:46:59;;;;;;;3.58;3.28;;;16.70;49.10;;;;;;5097739;28;20165;-66
2024/01/10 09:49:25;;;;;;;3.65;3.35;;;16.70;49.10;;;;;;5079926;28;20262;-65
2024/01/10 09:51:53;;;;;;;3.42;3.13;;;16.60;49.10;;;;;;5115921;28;20179;-65
2024/01/10 09:54:19;;;;;;;3.25;2.95;;;16.60;49.20;;;;;;5097566;28;20262;-65
2024/01/10 09:56:45;;;;;;;3.50;3.20;;;16.60;49.30;;;;;;5096872;28;20290;-66
2024/01/10 09:59:11;;;;;;;3.78;3.30;;;16.50;49.40;;;;;;5115711;28;20651;-65
2024/01/10 10:01:39;;;;;;;3.90;3.00;;;16.40;49.40;;;;;;5097471;28;20197;-65
2024/01/10 10:04:07;;;;;;;3.22;2.92;;;16.40;49.40;;;;;;5114964;28;20192;-66
2024/01/10 10:06:33;;;;;;;3.55;3.25;;;16.30;49.50;;;;;;5097526;28;20256;-65
2024/01/10 10:08:59;;;;;;;3.80;3.40;;;16.30;49.60;;;;;;5115897;28;20175;-65
2024/01/10 10:11:25;;;;;;;3.33;3.00;;;16.20;49.70;;;;;;5114485;28;20184;-65
2024/01/10 10:13:50;;;;;;;4.03;3.50;;;16.10;49.70;;;;;;5097227;28;20235;-65
2024/01/10 10:16:18;;;;;;;4.10;3.20;;;16.10;49.80;;;;;;5115417;28;20510;-66
2024/01/10 10:18:44;;;;;;;4.13;3.63;;;16.10;49.70;;;;;;5079908;28;20205;-65
2024/01/10 10:21:14;;;;;;;3.50;3.17;;;16.10;49.70;;;;;;5114032;28;20655;-66
2024/01/10 10:23:57;;;;;;;4.28;3.50;;;16.10;49.70;;;;;;5115162;28;20585;-66
2024/01/10 10:26:23;;;;;;;5.03;3.95;;;16.10;49.70;;;;;;5114849;28;20173;-65
2024/01/10 10:28:49;;;;;;;3.90;3.53;;;16.10;49.70;;;;;;5115406;28;20177;-65
2024/01/10 10:31:16;;;;;;;4.20;3.72;;;16.20;49.60;;;;;;5114338;28;20169;-65
2024/01/10 10:33:43;;;;;;;4.75;3.70;;;16.20;49.70;;;;;;5115250;28;20209;-65
2024/01/10 10:36:08;;;;;;;3.88;3.50;;;16.20;49.70;;;;;;5115165;28;20201;-67
2024/01/10 10:38:36;;;;;;;3.53;3.22;;;16.20;49.60;;;;;;5113973;28;20604;-66
2024/01/10 10:41:01;;;;;;;4.20;3.70;;;16.20;49.60;;;;;;5114842;28;20177;-66
2024/01/10 10:43:27;;;;;;;4.22;3.83;;;16.20;49.60;;;;;;5079658;28;20173;-66
2024/01/10 10:45:53;;;;;;;4.65;3.90;;;16.20;49.60;;;;;;5096270;28;20238;-65
2024/01/10 10:48:20;;;;;;;4.32;3.70;;;16.30;49.50;;;;;;5079815;28;20177;-66
2024/01/10 10:51:08;;;;;;;4.03;3.63;;;16.30;49.40;;;;;;5114689;28;20632;-65
2024/01/10 10:53:45;;;;;;;4.72;3.55;;;16.30;49.30;;;;;;5113957;28;20209;-65
2024/01/10 10:56:10;;;;;;;4.20;3.70;;;16.30;49.30;;;;;;5097344;28;20264;-66
2024/01/10 10:58:43;;;;;;;3.80;3.10;;;16.40;49.30;;;;;;5114218;28;20753;-65
2024/01/10 11:01:10;;;;;;;4.45;4.05;;;16.40;49.30;;;;;;5113778;28;20180;-66
2024/01/10 11:03:37;;;;;;;4.07;3.67;;;16.40;49.20;;;;;;5114153;28;20204;-66
2024/01/10 11:06:04;;;;;;;4.05;3.38;;;16.40;49.20;;;;;;5113849;28;20177;-65
2024/01/10 11:08:38;;;;;;;3.60;3.30;;;16.40;49.20;;;;;;5114291;28;20184;-66
2024/01/10 11:11:05;;;;;;;4.18;3.75;;;16.50;49.20;;;;;;5080570;28;20175;-65
2024/01/10 11:13:54;;;;;;;4.78;3.83;;;16.50;49.10;;;;;;5113393;28;20208;-66
2024/01/10 11:16:49;;;;;;;4.28;3.72;;;16.50;49.00;;;;;;5095809;28;20177;-65
2024/01/10 11:19:45;;;;;;;3.95;3.55;;;16.50;49.00;;;;;;5114138;28;20177;-65
2024/01/10 11:22:37;;;;;;;3.95;3.55;;;16.50;49.00;;;;;;5097266;28;20181;-65
2024/01/10 11:25:03;;;;;;;4.07;3.65;;;16.50;49.00;;;;;;5099194;28;20196;-65
2024/01/10 11:27:28;;;;;;;4.25;3.53;;;16.50;49.00;;;;;;5113276;28;20632;-65
2024/01/10 11:29:54;;;;;;;3.83;3.42;;;16.60;48.90;;;;;;5095753;28;20212;-65
2024/01/10 11:32:24;;;;;;;4.00;3.40;;;16.60;48.90;;;;;;5113502;28;20172;-65
2024/01/10 11:34:55;;;;;;;3.85;3.50;;;16.60;48.90;;;;;;5113285;28;20267;-65
2024/01/10 11:37:21;;;;;;;4.35;3.95;;;16.60;48.80;;;;;;5113504;28;20226;-66
2024/01/10 11:39:47;;;;;;;4.45;3.83;;;16.60;48.80;;;;;;5114120;28;20165;-66
2024/01/10 11:42:40;;;;;;;4.00;3.50;;;16.70;48.90;;;;;;5113073;28;20183;-66
2024/01/10 11:45:06;;;;;;;4.68;4.18;;;16.60;48.90;;;;;;5098795;28;20195;-66
2024/01/10 11:47:31;;;;;;;4.13;3.72;;;16.60;48.90;;;;;;5113338;28;20623;-65
2024/01/10 11:49:57;;;;;;;3.70;3.40;;;16.70;48.90;;;;;;5095101;28;20169;-66
2024/01/10 11:52:24;;;;;;;3.28;2.97;;;16.70;48.90;;;;;;5113541;28;20175;-65
2024/01/10 11:54:50;;;;;;;3.85;3.45;;;16.70;48.90;;;;;;5113638;28;20221;-65
2024/01/10 11:57:22;;;;;;;4.65;3.67;;;16.70;48.90;;;;;;5112409;28;20361;-66
2024/01/10 11:59:50;;;;;;;3.85;3.47;;;16.70;48.80;;;;;;5113452;28;20705;-65
2024/01/10 12:02:16;;;;;;;3.85;3.45;;;16.70;48.80;;;;;;5112332;28;20180;-66
2024/01/10 12:04:42;;;;;;;3.70;3.38;;;16.70;48.90;;;;;;5095466;28;20185;-65
2024/01/10 12:07:07;;;;;;;3.45;3.15;;;16.70;48.90;;;;;;5113432;28;20175;-66
2024/01/10 12:09:36;;;;;;;4.20;3.80;;;16.70;49.00;;;;;;5112515;28;20288;-66
2024/01/10 12:12:03;;;;;;;4.15;3.72;;;16.70;48.90;;;;;;5113231;28;20170;-66
2024/01/10 12:14:28;;;;;;;4.07;3.67;;;16.70;48.90;;;;;;5112711;28;20228;-66
2024/01/10 12:16:54;;;;;;;4.15;3.65;;;16.70;49.00;;;;;;5112398;28;20947;-65
2024/01/10 12:19:20;;;;;;;4.32;3.90;;;16.70;49.10;;;;;;5112607;28;20192;-66
2024/01/10 12:21:45;;;;;;;3.67;3.33;;;16.60;49.10;;;;;;5113176;28;20169;-65
2024/01/10 12:24:11;;;;;;;4.20;3.78;;;16.50;49.20;;;;;;5112364;28;20177;-66
2024/01/10 12:26:42;;;;;;;3.83;3.50;;;16.50;49.30;;;;;;5112777;28;20179;-65
2024/01/10 12:29:08;;;;;;;3.85;3.50;;;16.50;49.40;;;;;;5095714;28;20234;-65
2024/01/10 12:31:33;;;;;;;4.13;3.63;;;16.50;49.50;;;;;;5112172;28;20173;-65
2024/01/10 12:33:59;;;;;;;4.18;3.50;;;16.50;49.50;;;;;;5111707;28;20272;-66
2024/01/10 12:36:25;;;;;;;3.50;3.20;;;16.50;49.50;;;;;;5112745;28;20553;-66
2024/01/10 12:38:53;;;;;;;4.47;4.05;;;16.40;49.50;;;;;;5112065;28;20177;-66
2024/01/10 12:41:19;;;;;;;4.10;3.72;;;16.50;49.60;;;;;;5112424;28;20173;-67
2024/01/10 12:43:57;;;;;;;3.92;3.47;;;16.40;49.60;;;;;;5112244;28;20956;-67
2024/01/10 12:46:25;;;;;;;3.58;3.28;;;16.30;49.70;;;;;;5111817;28;20561;-67